sensor_id;sensor_type;location;lat;lon;timestamp;P1;durP1;ratioP1;P2;durP2;ratioP2
23449;SDS011;11897;45.438;12.128;2023-06-14T00:01:52;4.33;;;3.50;;
23449;SDS011;11897;45.438;12.128;2023-06-14T00:04:20;5.90;;;3.13;;
23449;SDS011;11897;45.438;12.128;2023-06-14T00:06:47;3.80;;;3.07;;
23449;SDS011;11897;45.438;12.128;2023-06-14T00:09:14;3.93;;;3.10;;
23449;SDS011;11897;45.438;12.128;2023-06-14T00:11:42;4.07;;;2.90;;
23449;SDS011;11897;45.438;12.128;2023-06-14T00:14:09;5.07;;;3.20;;
23449;SDS011;11897;45.438;12.128;2023-06-14T00:16:36;5.03;;;3.40;;
23449;SDS011;11897;45.438;12.128;2023-06-14T00:19:04;4.77;;;3.27;;
23449;SDS011;11897;45.438;12.128;2023-06-14T00:21:32;4.77;;;3.47;;
23449;SDS011;11897;45.438;12.128;2023-06-14T00:23:58;7.87;;;3.17;;
23449;SDS011;11897;45.438;12.128;2023-06-14T00:26:25;7.03;;;3.40;;
23449;SDS011;11897;45.438;12.128;2023-06-14T00:28:52;3.67;;;2.80;;
23449;SDS011;11897;45.438;12.128;2023-06-14T00:31:19;4.43;;;3.20;;
23449;SDS011;11897;45.438;12.128;2023-06-14T00:33:46;3.63;;;3.00;;
23449;SDS011;11897;45.438;12.128;2023-06-14T00:36:12;5.23;;;2.93;;
23449;SDS011;11897;45.438;12.128;2023-06-14T00:38:40;6.10;;;3.33;;
23449;SDS011;11897;45.438;12.128;2023-06-14T00:41:08;4.60;;;3.40;;
23449;SDS011;11897;45.438;12.128;2023-06-14T00:43:34;4.60;;;3.10;;
23449;SDS011;11897;45.438;12.128;2023-06-14T00:46:01;6.10;;;3.43;;
23449;SDS011;11897;45.438;12.128;2023-06-14T00:48:30;4.37;;;2.90;;
23449;SDS011;11897;45.438;12.128;2023-06-14T00:50:57;4.37;;;3.37;;
23449;SDS011;11897;45.438;12.128;2023-06-14T00:53:24;4.13;;;3.20;;
23449;SDS011;11897;45.438;12.128;2023-06-14T00:55:52;6.00;;;4.00;;
23449;SDS011;11897;45.438;12.128;2023-06-14T00:58:20;4.63;;;3.50;;
23449;SDS011;11897;45.438;12.128;2023-06-14T01:00:48;4.70;;;3.60;;
23449;SDS011;11897;45.438;12.128;2023-06-14T01:03:16;5.60;;;3.57;;
23449;SDS011;11897;45.438;12.128;2023-06-14T01:05:44;5.97;;;3.40;;
23449;SDS011;11897;45.438;12.128;2023-06-14T01:08:15;6.50;;;4.53;;
23449;SDS011;11897;45.438;12.128;2023-06-14T01:10:51;5.57;;;3.73;;
23449;SDS011;11897;45.438;12.128;2023-06-14T01:13:21;4.47;;;3.93;;
23449;SDS011;11897;45.438;12.128;2023-06-14T01:15:50;5.97;;;3.53;;
23449;SDS011;11897;45.438;12.128;2023-06-14T01:18:17;5.73;;;3.67;;
23449;SDS011;11897;45.438;12.128;2023-06-14T01:20:44;6.63;;;3.90;;
23449;SDS011;11897;45.438;12.128;2023-06-14T01:23:13;7.47;;;3.93;;
23449;SDS011;11897;45.438;12.128;2023-06-14T01:25:40;5.17;;;3.63;;
23449;SDS011;11897;45.438;12.128;2023-06-14T01:28:11;5.20;;;3.70;;
23449;SDS011;11897;45.438;12.128;2023-06-14T01:30:39;5.30;;;3.67;;
23449;SDS011;11897;45.438;12.128;2023-06-14T01:33:10;4.90;;;3.30;;
23449;SDS011;11897;45.438;12.128;2023-06-14T01:35:38;6.03;;;3.93;;
23449;SDS011;11897;45.438;12.128;2023-06-14T01:38:07;5.03;;;3.90;;
23449;SDS011;11897;45.438;12.128;2023-06-14T01:40:35;5.10;;;3.80;;
23449;SDS011;11897;45.438;12.128;2023-06-14T01:43:03;5.47;;;3.80;;
23449;SDS011;11897;45.438;12.128;2023-06-14T01:45:30;5.43;;;3.40;;
23449;SDS011;11897;45.438;12.128;2023-06-14T01:47:58;6.07;;;4.13;;
23449;SDS011;11897;45.438;12.128;2023-06-14T01:50:27;11.03;;;4.03;;
23449;SDS011;11897;45.438;12.128;2023-06-14T01:52:54;5.63;;;3.77;;
23449;SDS011;11897;45.438;12.128;2023-06-14T01:55:21;5.73;;;3.37;;
23449;SDS011;11897;45.438;12.128;2023-06-14T01:57:51;7.33;;;3.70;;
23449;SDS011;11897;45.438;12.128;2023-06-14T02:00:18;4.33;;;3.47;;
23449;SDS011;11897;45.438;12.128;2023-06-14T02:02:45;4.17;;;3.23;;
23449;SDS011;11897;45.438;12.128;2023-06-14T02:05:12;5.10;;;4.20;;
23449;SDS011;11897;45.438;12.128;2023-06-14T02:07:40;6.17;;;4.10;;
23449;SDS011;11897;45.438;12.128;2023-06-14T02:10:07;7.07;;;3.40;;
23449;SDS011;11897;45.438;12.128;2023-06-14T02:12:34;7.63;;;2.97;;
23449;SDS011;11897;45.438;12.128;2023-06-14T02:15:02;6.33;;;4.57;;
23449;SDS011;11897;45.438;12.128;2023-06-14T02:17:31;4.97;;;3.50;;
23449;SDS011;11897;45.438;12.128;2023-06-14T02:19:57;4.43;;;3.37;;
23449;SDS011;11897;45.438;12.128;2023-06-14T02:22:25;4.70;;;3.17;;
23449;SDS011;11897;45.438;12.128;2023-06-14T02:24:52;6.83;;;3.93;;
23449;SDS011;11897;45.438;12.128;2023-06-14T02:27:19;5.20;;;3.73;;
23449;SDS011;11897;45.438;12.128;2023-06-14T02:29:45;5.17;;;3.77;;
23449;SDS011;11897;45.438;12.128;2023-06-14T02:32:13;9.50;;;3.97;;
23449;SDS011;11897;45.438;12.128;2023-06-14T02:34:41;4.13;;;3.40;;
23449;SDS011;11897;45.438;12.128;2023-06-14T02:37:08;7.13;;;3.70;;
23449;SDS011;11897;45.438;12.128;2023-06-14T02:39:36;6.90;;;4.00;;
23449;SDS011;11897;45.438;12.128;2023-06-14T02:42:03;8.27;;;4.90;;
23449;SDS011;11897;45.438;12.128;2023-06-14T02:44:29;7.53;;;4.70;;
23449;SDS011;11897;45.438;12.128;2023-06-14T02:46:59;6.57;;;4.27;;
23449;SDS011;11897;45.438;12.128;2023-06-14T02:49:27;7.33;;;4.67;;
23449;SDS011;11897;45.438;12.128;2023-06-14T02:51:54;5.03;;;3.70;;
23449;SDS011;11897;45.438;12.128;2023-06-14T02:54:21;5.23;;;3.70;;
23449;SDS011;11897;45.438;12.128;2023-06-14T02:56:48;6.97;;;4.10;;
23449;SDS011;11897;45.438;12.128;2023-06-14T02:59:15;6.70;;;4.03;;
23449;SDS011;11897;45.438;12.128;2023-06-14T03:01:43;4.67;;;3.60;;
23449;SDS011;11897;45.438;12.128;2023-06-14T03:04:13;6.23;;;4.20;;
23449;SDS011;11897;45.438;12.128;2023-06-14T03:06:42;6.07;;;3.70;;
23449;SDS011;11897;45.438;12.128;2023-06-14T03:09:17;5.17;;;3.37;;
23449;SDS011;11897;45.438;12.128;2023-06-14T03:11:45;6.37;;;4.23;;
23449;SDS011;11897;45.438;12.128;2023-06-14T03:14:13;7.50;;;3.97;;
23449;SDS011;11897;45.438;12.128;2023-06-14T03:16:41;7.13;;;4.23;;
23449;SDS011;11897;45.438;12.128;2023-06-14T03:19:11;5.13;;;3.63;;
23449;SDS011;11897;45.438;12.128;2023-06-14T03:21:38;4.73;;;3.77;;
23449;SDS011;11897;45.438;12.128;2023-06-14T03:24:13;8.50;;;3.60;;
23449;SDS011;11897;45.438;12.128;2023-06-14T03:26:42;5.27;;;3.83;;
23449;SDS011;11897;45.438;12.128;2023-06-14T03:29:09;6.33;;;4.17;;
23449;SDS011;11897;45.438;12.128;2023-06-14T03:31:36;5.43;;;4.10;;
23449;SDS011;11897;45.438;12.128;2023-06-14T03:34:05;6.57;;;3.90;;
23449;SDS011;11897;45.438;12.128;2023-06-14T03:36:32;6.50;;;3.90;;
23449;SDS011;11897;45.438;12.128;2023-06-14T03:38:59;7.17;;;3.93;;
23449;SDS011;11897;45.438;12.128;2023-06-14T03:41:27;5.17;;;3.77;;
23449;SDS011;11897;45.438;12.128;2023-06-14T03:43:54;5.80;;;4.10;;
23449;SDS011;11897;45.438;12.128;2023-06-14T03:46:21;5.70;;;3.83;;
23449;SDS011;11897;45.438;12.128;2023-06-14T03:48:48;5.57;;;3.63;;
23449;SDS011;11897;45.438;12.128;2023-06-14T03:51:16;8.43;;;4.03;;
23449;SDS011;11897;45.438;12.128;2023-06-14T03:53:44;5.87;;;3.80;;
23449;SDS011;11897;45.438;12.128;2023-06-14T03:56:10;5.77;;;4.10;;
23449;SDS011;11897;45.438;12.128;2023-06-14T03:58:45;6.13;;;4.03;;
23449;SDS011;11897;45.438;12.128;2023-06-14T04:01:11;5.87;;;4.07;;
23449;SDS011;11897;45.438;12.128;2023-06-14T04:03:38;6.80;;;4.17;;
23449;SDS011;11897;45.438;12.128;2023-06-14T04:06:05;5.33;;;3.67;;
23449;SDS011;11897;45.438;12.128;2023-06-14T04:08:33;5.30;;;3.47;;
23449;SDS011;11897;45.438;12.128;2023-06-14T04:10:59;5.43;;;3.47;;
23449;SDS011;11897;45.438;12.128;2023-06-14T04:13:26;5.27;;;3.67;;
23449;SDS011;11897;45.438;12.128;2023-06-14T04:15:54;4.50;;;3.50;;
23449;SDS011;11897;45.438;12.128;2023-06-14T04:18:26;6.13;;;3.83;;
23449;SDS011;11897;45.438;12.128;2023-06-14T04:20:54;6.13;;;4.03;;
23449;SDS011;11897;45.438;12.128;2023-06-14T04:23:22;9.47;;;3.93;;
23449;SDS011;11897;45.438;12.128;2023-06-14T04:25:49;4.93;;;3.77;;
23449;SDS011;11897;45.438;12.128;2023-06-14T04:28:16;5.83;;;3.50;;
23449;SDS011;11897;45.438;12.128;2023-06-14T04:30:44;7.83;;;3.77;;
23449;SDS011;11897;45.438;12.128;2023-06-14T04:33:15;4.90;;;3.47;;
23449;SDS011;11897;45.438;12.128;2023-06-14T04:35:43;4.03;;;3.00;;
23449;SDS011;11897;45.438;12.128;2023-06-14T04:38:14;5.47;;;3.40;;
23449;SDS011;11897;45.438;12.128;2023-06-14T04:40:41;6.10;;;3.47;;
23449;SDS011;11897;45.438;12.128;2023-06-14T04:43:10;4.20;;;3.20;;
23449;SDS011;11897;45.438;12.128;2023-06-14T04:45:40;5.03;;;3.37;;
23449;SDS011;11897;45.438;12.128;2023-06-14T04:48:12;9.10;;;3.47;;
23449;SDS011;11897;45.438;12.128;2023-06-14T04:50:40;4.50;;;3.50;;
23449;SDS011;11897;45.438;12.128;2023-06-14T04:53:09;4.57;;;3.17;;
23449;SDS011;11897;45.438;12.128;2023-06-14T04:55:36;4.40;;;3.40;;
23449;SDS011;11897;45.438;12.128;2023-06-14T04:58:04;4.17;;;3.20;;
23449;SDS011;11897;45.438;12.128;2023-06-14T05:00:31;4.37;;;3.00;;
23449;SDS011;11897;45.438;12.128;2023-06-14T05:02:57;5.27;;;3.30;;
23449;SDS011;11897;45.438;12.128;2023-06-14T05:05:26;4.77;;;3.70;;
23449;SDS011;11897;45.438;12.128;2023-06-14T05:07:57;5.53;;;3.30;;
23449;SDS011;11897;45.438;12.128;2023-06-14T05:10:24;4.57;;;3.40;;
23449;SDS011;11897;45.438;12.128;2023-06-14T05:12:51;4.63;;;3.63;;
23449;SDS011;11897;45.438;12.128;2023-06-14T05:15:19;4.57;;;3.03;;
23449;SDS011;11897;45.438;12.128;2023-06-14T05:17:50;5.80;;;3.57;;
23449;SDS011;11897;45.438;12.128;2023-06-14T05:20:20;5.37;;;3.20;;
23449;SDS011;11897;45.438;12.128;2023-06-14T05:22:48;5.07;;;3.13;;
23449;SDS011;11897;45.438;12.128;2023-06-14T05:25:16;3.47;;;2.90;;
23449;SDS011;11897;45.438;12.128;2023-06-14T05:27:44;5.23;;;3.03;;
23449;SDS011;11897;45.438;12.128;2023-06-14T05:30:12;7.80;;;2.73;;
23449;SDS011;11897;45.438;12.128;2023-06-14T05:32:39;5.17;;;3.37;;
23449;SDS011;11897;45.438;12.128;2023-06-14T05:35:06;4.60;;;3.50;;
23449;SDS011;11897;45.438;12.128;2023-06-14T05:37:33;3.50;;;3.20;;
23449;SDS011;11897;45.438;12.128;2023-06-14T05:39:59;3.67;;;2.90;;
23449;SDS011;11897;45.438;12.128;2023-06-14T05:42:32;5.03;;;2.90;;
23449;SDS011;11897;45.438;12.128;2023-06-14T05:44:58;3.97;;;2.90;;
23449;SDS011;11897;45.438;12.128;2023-06-14T05:47:25;3.50;;;2.57;;
23449;SDS011;11897;45.438;12.128;2023-06-14T05:49:52;5.13;;;2.60;;
23449;SDS011;11897;45.438;12.128;2023-06-14T05:52:19;2.83;;;2.47;;
23449;SDS011;11897;45.438;12.128;2023-06-14T05:54:46;3.60;;;2.40;;
23449;SDS011;11897;45.438;12.128;2023-06-14T05:57:12;3.70;;;2.47;;
23449;SDS011;11897;45.438;12.128;2023-06-14T05:59:40;4.30;;;2.53;;
23449;SDS011;11897;45.438;12.128;2023-06-14T06:02:07;3.37;;;2.40;;
23449;SDS011;11897;45.438;12.128;2023-06-14T06:04:34;4.40;;;2.40;;
23449;SDS011;11897;45.438;12.128;2023-06-14T06:07:01;2.70;;;1.98;;
23449;SDS011;11897;45.438;12.128;2023-06-14T06:09:28;3.07;;;2.23;;
23449;SDS011;11897;45.438;12.128;2023-06-14T06:11:54;4.17;;;2.37;;
23449;SDS011;11897;45.438;12.128;2023-06-14T06:14:21;4.20;;;2.50;;
23449;SDS011;11897;45.438;12.128;2023-06-14T06:16:49;3.43;;;2.50;;
23449;SDS011;11897;45.438;12.128;2023-06-14T06:19:17;1.92;;;1.67;;
23449;SDS011;11897;45.438;12.128;2023-06-14T06:21:44;3.05;;;2.45;;
23449;SDS011;11897;45.438;12.128;2023-06-14T06:24:11;4.05;;;2.30;;
23449;SDS011;11897;45.438;12.128;2023-06-14T06:26:38;3.38;;;2.30;;
23449;SDS011;11897;45.438;12.128;2023-06-14T06:29:06;3.35;;;2.30;;
23449;SDS011;11897;45.438;12.128;2023-06-14T06:31:33;2.55;;;2.00;;
23449;SDS011;11897;45.438;12.128;2023-06-14T06:34:01;3.90;;;2.15;;
23449;SDS011;11897;45.438;12.128;2023-06-14T06:36:29;7.97;;;1.98;;
23449;SDS011;11897;45.438;12.128;2023-06-14T06:38:55;3.42;;;2.30;;
23449;SDS011;11897;45.438;12.128;2023-06-14T06:41:22;5.95;;;2.60;;
23449;SDS011;11897;45.438;12.128;2023-06-14T06:43:49;6.75;;;2.40;;
23449;SDS011;11897;45.438;12.128;2023-06-14T06:46:16;3.38;;;2.47;;
23449;SDS011;11897;45.438;12.128;2023-06-14T06:48:44;3.70;;;2.08;;
23449;SDS011;11897;45.438;12.128;2023-06-14T06:51:12;5.97;;;2.67;;
23449;SDS011;11897;45.438;12.128;2023-06-14T06:53:41;3.00;;;1.98;;
23449;SDS011;11897;45.438;12.128;2023-06-14T06:56:08;3.63;;;2.15;;
23449;SDS011;11897;45.438;12.128;2023-06-14T06:58:34;3.05;;;1.95;;
23449;SDS011;11897;45.438;12.128;2023-06-14T07:01:01;2.30;;;1.85;;
23449;SDS011;11897;45.438;12.128;2023-06-14T07:03:28;2.67;;;2.10;;
23449;SDS011;11897;45.438;12.128;2023-06-14T07:05:55;3.55;;;2.03;;
23449;SDS011;11897;45.438;12.128;2023-06-14T07:08:24;5.20;;;2.05;;
23449;SDS011;11897;45.438;12.128;2023-06-14T07:10:50;3.13;;;2.10;;
23449;SDS011;11897;45.438;12.128;2023-06-14T07:13:17;4.00;;;1.85;;
23449;SDS011;11897;45.438;12.128;2023-06-14T07:15:44;3.88;;;1.92;;
23449;SDS011;11897;45.438;12.128;2023-06-14T07:18:11;2.47;;;1.73;;
23449;SDS011;11897;45.438;12.128;2023-06-14T07:20:37;2.10;;;1.70;;
23449;SDS011;11897;45.438;12.128;2023-06-14T07:23:05;2.70;;;1.88;;
23449;SDS011;11897;45.438;12.128;2023-06-14T07:25:33;2.13;;;1.60;;
23449;SDS011;11897;45.438;12.128;2023-06-14T07:28:00;2.33;;;1.80;;
23449;SDS011;11897;45.438;12.128;2023-06-14T07:30:26;5.63;;;1.88;;
23449;SDS011;11897;45.438;12.128;2023-06-14T07:32:55;2.75;;;1.90;;
23449;SDS011;11897;45.438;12.128;2023-06-14T07:35:22;2.30;;;1.95;;
23449;SDS011;11897;45.438;12.128;2023-06-14T07:37:48;2.20;;;1.80;;
23449;SDS011;11897;45.438;12.128;2023-06-14T07:40:15;6.65;;;1.80;;
23449;SDS011;11897;45.438;12.128;2023-06-14T07:42:43;2.42;;;1.88;;
23449;SDS011;11897;45.438;12.128;2023-06-14T07:45:12;2.78;;;1.85;;
23449;SDS011;11897;45.438;12.128;2023-06-14T07:47:38;1.85;;;1.35;;
23449;SDS011;11897;45.438;12.128;2023-06-14T07:50:05;3.03;;;1.77;;
23449;SDS011;11897;45.438;12.128;2023-06-14T07:52:35;2.60;;;1.58;;
23449;SDS011;11897;45.438;12.128;2023-06-14T07:55:01;2.65;;;1.70;;
23449;SDS011;11897;45.438;12.128;2023-06-14T07:57:28;3.67;;;2.03;;
23449;SDS011;11897;45.438;12.128;2023-06-14T07:59:56;2.35;;;1.85;;
23449;SDS011;11897;45.438;12.128;2023-06-14T08:02:22;2.40;;;1.70;;
23449;SDS011;11897;45.438;12.128;2023-06-14T08:04:49;2.15;;;1.67;;
23449;SDS011;11897;45.438;12.128;2023-06-14T08:07:16;2.70;;;1.75;;
23449;SDS011;11897;45.438;12.128;2023-06-14T08:09:42;2.78;;;1.85;;
23449;SDS011;11897;45.438;12.128;2023-06-14T08:12:09;4.03;;;2.08;;
23449;SDS011;11897;45.438;12.128;2023-06-14T08:14:36;3.30;;;1.98;;
23449;SDS011;11897;45.438;12.128;2023-06-14T08:17:04;3.08;;;2.20;;
23449;SDS011;11897;45.438;12.128;2023-06-14T08:19:32;2.30;;;1.90;;
23449;SDS011;11897;45.438;12.128;2023-06-14T08:21:59;2.33;;;1.70;;
23449;SDS011;11897;45.438;12.128;2023-06-14T08:24:27;3.60;;;1.88;;
23449;SDS011;11897;45.438;12.128;2023-06-14T08:26:54;2.08;;;1.73;;
23449;SDS011;11897;45.438;12.128;2023-06-14T08:29:21;2.97;;;1.77;;
23449;SDS011;11897;45.438;12.128;2023-06-14T08:31:48;2.17;;;1.85;;
23449;SDS011;11897;45.438;12.128;2023-06-14T08:34:16;4.78;;;2.10;;
23449;SDS011;11897;45.438;12.128;2023-06-14T08:36:42;2.08;;;1.60;;
23449;SDS011;11897;45.438;12.128;2023-06-14T08:39:10;2.42;;;1.77;;
23449;SDS011;11897;45.438;12.128;2023-06-14T08:41:37;2.50;;;2.15;;
23449;SDS011;11897;45.438;12.128;2023-06-14T08:44:03;7.18;;;2.08;;
23449;SDS011;11897;45.438;12.128;2023-06-14T08:46:32;1.98;;;1.75;;
23449;SDS011;11897;45.438;12.128;2023-06-14T08:48:59;1.73;;;1.63;;
23449;SDS011;11897;45.438;12.128;2023-06-14T08:51:28;1.90;;;1.70;;
23449;SDS011;11897;45.438;12.128;2023-06-14T08:53:59;3.30;;;1.83;;
23449;SDS011;11897;45.438;12.128;2023-06-14T08:56:27;2.70;;;1.77;;
23449;SDS011;11897;45.438;12.128;2023-06-14T08:58:54;2.83;;;2.00;;
23449;SDS011;11897;45.438;12.128;2023-06-14T09:01:21;2.78;;;2.00;;
23449;SDS011;11897;45.438;12.128;2023-06-14T09:03:48;4.13;;;1.65;;
23449;SDS011;11897;45.438;12.128;2023-06-14T09:06:15;2.05;;;1.80;;
23449;SDS011;11897;45.438;12.128;2023-06-14T09:08:46;2.90;;;2.17;;
23449;SDS011;11897;45.438;12.128;2023-06-14T09:11:14;1.88;;;1.73;;
23449;SDS011;11897;45.438;12.128;2023-06-14T09:13:41;2.67;;;1.85;;
23449;SDS011;11897;45.438;12.128;2023-06-14T09:16:09;1.98;;;1.70;;
23449;SDS011;11897;45.438;12.128;2023-06-14T09:18:36;3.75;;;2.20;;
23449;SDS011;11897;45.438;12.128;2023-06-14T09:21:03;2.47;;;2.00;;
23449;SDS011;11897;45.438;12.128;2023-06-14T09:23:33;2.42;;;1.92;;
23449;SDS011;11897;45.438;12.128;2023-06-14T09:26:01;2.47;;;1.88;;
23449;SDS011;11897;45.438;12.128;2023-06-14T09:28:28;3.42;;;1.73;;
23449;SDS011;11897;45.438;12.128;2023-06-14T09:30:54;3.25;;;1.95;;
23449;SDS011;11897;45.438;12.128;2023-06-14T09:33:21;2.80;;;2.08;;
23449;SDS011;11897;45.438;12.128;2023-06-14T09:35:50;1.98;;;1.70;;
23449;SDS011;11897;45.438;12.128;2023-06-14T09:38:17;3.00;;;1.90;;
23449;SDS011;11897;45.438;12.128;2023-06-14T09:40:44;3.38;;;2.28;;
23449;SDS011;11897;45.438;12.128;2023-06-14T09:43:12;3.03;;;1.85;;
23449;SDS011;11897;45.438;12.128;2023-06-14T09:45:39;3.55;;;2.17;;
23449;SDS011;11897;45.438;12.128;2023-06-14T09:48:06;2.17;;;1.98;;
23449;SDS011;11897;45.438;12.128;2023-06-14T09:50:33;4.35;;;2.33;;
23449;SDS011;11897;45.438;12.128;2023-06-14T09:53:01;4.35;;;2.38;;
23449;SDS011;11897;45.438;12.128;2023-06-14T09:55:29;2.75;;;2.20;;
23449;SDS011;11897;45.438;12.128;2023-06-14T09:57:57;3.05;;;1.88;;
23449;SDS011;11897;45.438;12.128;2023-06-14T10:00:25;3.50;;;1.90;;
23449;SDS011;11897;45.438;12.128;2023-06-14T10:02:54;2.42;;;2.00;;
23449;SDS011;11897;45.438;12.128;2023-06-14T10:05:24;3.22;;;1.70;;
23449;SDS011;11897;45.438;12.128;2023-06-14T10:07:53;2.33;;;1.80;;
23449;SDS011;11897;45.438;12.128;2023-06-14T10:10:22;6.43;;;2.00;;
23449;SDS011;11897;45.438;12.128;2023-06-14T10:12:48;3.60;;;1.80;;
23449;SDS011;11897;45.438;12.128;2023-06-14T10:15:17;4.88;;;1.67;;
23449;SDS011;11897;45.438;12.128;2023-06-14T10:17:48;3.97;;;2.10;;
23449;SDS011;11897;45.438;12.128;2023-06-14T10:20:20;6.22;;;1.95;;
23449;SDS011;11897;45.438;12.128;2023-06-14T10:22:49;4.30;;;2.10;;
23449;SDS011;11897;45.438;12.128;2023-06-14T10:25:25;4.18;;;1.80;;
23449;SDS011;11897;45.438;12.128;2023-06-14T10:27:53;6.18;;;2.30;;
23449;SDS011;11897;45.438;12.128;2023-06-14T10:30:25;2.92;;;1.80;;
23449;SDS011;11897;45.438;12.128;2023-06-14T10:33:05;2.25;;;1.85;;
23449;SDS011;11897;45.438;12.128;2023-06-14T10:35:32;2.60;;;1.80;;
23449;SDS011;11897;45.438;12.128;2023-06-14T10:38:08;9.95;;;2.25;;
23449;SDS011;11897;45.438;12.128;2023-06-14T10:40:36;2.45;;;1.73;;
23449;SDS011;11897;45.438;12.128;2023-06-14T10:48:30;3.83;;;1.98;;
23449;SDS011;11897;45.438;12.128;2023-06-14T10:50:59;2.25;;;1.77;;
23449;SDS011;11897;45.438;12.128;2023-06-14T10:53:26;1.85;;;1.60;;
23449;SDS011;11897;45.438;12.128;2023-06-14T10:55:54;2.65;;;1.90;;
23449;SDS011;11897;45.438;12.128;2023-06-14T10:58:22;2.03;;;1.70;;
23449;SDS011;11897;45.438;12.128;2023-06-14T11:00:50;2.85;;;1.83;;
23449;SDS011;11897;45.438;12.128;2023-06-14T11:03:30;2.00;;;1.80;;
23449;SDS011;11897;45.438;12.128;2023-06-14T11:06:01;2.15;;;1.77;;
23449;SDS011;11897;45.438;12.128;2023-06-14T11:11:21;2.25;;;1.80;;
23449;SDS011;11897;45.438;12.128;2023-06-14T11:13:48;3.17;;;2.05;;
23449;SDS011;11897;45.438;12.128;2023-06-14T11:16:16;2.40;;;2.00;;
23449;SDS011;11897;45.438;12.128;2023-06-14T11:18:44;2.25;;;2.05;;
23449;SDS011;11897;45.438;12.128;2023-06-14T11:21:14;3.40;;;1.77;;
23449;SDS011;11897;45.438;12.128;2023-06-14T11:23:41;3.53;;;2.10;;
23449;SDS011;11897;45.438;12.128;2023-06-14T11:26:08;4.53;;;2.20;;
23449;SDS011;11897;45.438;12.128;2023-06-14T11:28:35;3.10;;;2.40;;
23449;SDS011;11897;45.438;12.128;2023-06-14T11:31:02;2.10;;;1.90;;
23449;SDS011;11897;45.438;12.128;2023-06-14T11:33:29;2.28;;;2.08;;
23449;SDS011;11897;45.438;12.128;2023-06-14T11:35:56;4.07;;;1.98;;
23449;SDS011;11897;45.438;12.128;2023-06-14T11:38:24;4.50;;;2.17;;
23449;SDS011;11897;45.438;12.128;2023-06-14T11:40:51;3.47;;;2.33;;
23449;SDS011;11897;45.438;12.128;2023-06-14T11:43:17;3.25;;;2.00;;
23449;SDS011;11897;45.438;12.128;2023-06-14T11:45:47;3.55;;;2.28;;
23449;SDS011;11897;45.438;12.128;2023-06-14T11:48:14;2.33;;;1.77;;
23449;SDS011;11897;45.438;12.128;2023-06-14T11:50:40;2.30;;;1.75;;
23449;SDS011;11897;45.438;12.128;2023-06-14T11:53:07;7.18;;;2.28;;
23449;SDS011;11897;45.438;12.128;2023-06-14T11:55:37;2.90;;;2.40;;
23449;SDS011;11897;45.438;12.128;2023-06-14T11:58:05;2.17;;;1.77;;
23449;SDS011;11897;45.438;12.128;2023-06-14T12:00:32;4.90;;;2.00;;
23449;SDS011;11897;45.438;12.128;2023-06-14T12:02:59;5.88;;;2.03;;
23449;SDS011;11897;45.438;12.128;2023-06-14T12:05:26;3.45;;;1.63;;
23449;SDS011;11897;45.438;12.128;2023-06-14T12:07:57;2.85;;;2.22;;
23449;SDS011;11897;45.438;12.128;2023-06-14T12:10:25;3.17;;;2.08;;
23449;SDS011;11897;45.438;12.128;2023-06-14T12:12:56;2.92;;;2.30;;
23449;SDS011;11897;45.438;12.128;2023-06-14T12:15:22;3.40;;;1.98;;
23449;SDS011;11897;45.438;12.128;2023-06-14T12:17:49;2.47;;;2.13;;
23449;SDS011;11897;45.438;12.128;2023-06-14T12:20:17;3.78;;;2.40;;
23449;SDS011;11897;45.438;12.128;2023-06-14T12:22:47;3.13;;;2.05;;
23449;SDS011;11897;45.438;12.128;2023-06-14T12:25:23;4.57;;;2.30;;
23449;SDS011;11897;45.438;12.128;2023-06-14T12:27:53;2.60;;;1.73;;
23449;SDS011;11897;45.438;12.128;2023-06-14T12:30:20;3.50;;;2.10;;
23449;SDS011;11897;45.438;12.128;2023-06-14T12:32:46;4.93;;;2.80;;
23449;SDS011;11897;45.438;12.128;2023-06-14T12:35:13;3.03;;;2.53;;
23449;SDS011;11897;45.438;12.128;2023-06-14T12:37:40;4.20;;;2.30;;
23449;SDS011;11897;45.438;12.128;2023-06-14T12:40:07;5.97;;;2.13;;
23449;SDS011;11897;45.438;12.128;2023-06-14T12:42:34;2.10;;;1.90;;
23449;SDS011;11897;45.438;12.128;2023-06-14T12:45:02;2.58;;;2.20;;
23449;SDS011;11897;45.438;12.128;2023-06-14T12:47:29;3.35;;;2.83;;
23449;SDS011;11897;45.438;12.128;2023-06-14T12:49:56;3.08;;;2.72;;
23449;SDS011;11897;45.438;12.128;2023-06-14T12:52:23;2.65;;;2.45;;
23449;SDS011;11897;45.438;12.128;2023-06-14T12:54:49;3.33;;;2.42;;
23449;SDS011;11897;45.438;12.128;2023-06-14T12:57:17;3.55;;;2.38;;
23449;SDS011;11897;45.438;12.128;2023-06-14T12:59:43;4.22;;;2.47;;
23449;SDS011;11897;45.438;12.128;2023-06-14T13:02:13;4.53;;;2.40;;
23449;SDS011;11897;45.438;12.128;2023-06-14T13:04:40;7.55;;;2.83;;
23449;SDS011;11897;45.438;12.128;2023-06-14T13:07:06;3.10;;;2.10;;
23449;SDS011;11897;45.438;12.128;2023-06-14T13:09:33;3.83;;;2.30;;
23449;SDS011;11897;45.438;12.128;2023-06-14T13:12:00;3.40;;;2.28;;
23449;SDS011;11897;45.438;12.128;2023-06-14T13:14:27;2.97;;;2.10;;
23449;SDS011;11897;45.438;12.128;2023-06-14T13:16:54;2.10;;;1.92;;
23449;SDS011;11897;45.438;12.128;2023-06-14T13:19:22;2.55;;;2.28;;
23449;SDS011;11897;45.438;12.128;2023-06-14T13:21:49;2.47;;;2.00;;
23449;SDS011;11897;45.438;12.128;2023-06-14T13:24:15;2.63;;;2.35;;
23449;SDS011;11897;45.438;12.128;2023-06-14T13:26:42;2.63;;;2.28;;
23449;SDS011;11897;45.438;12.128;2023-06-14T13:29:09;3.60;;;2.65;;
23449;SDS011;11897;45.438;12.128;2023-06-14T13:31:36;2.28;;;1.92;;
23449;SDS011;11897;45.438;12.128;2023-06-14T13:34:03;4.15;;;2.40;;
23449;SDS011;11897;45.438;12.128;2023-06-14T13:36:31;1.77;;;1.60;;
23449;SDS011;11897;45.438;12.128;2023-06-14T13:38:58;6.18;;;1.90;;
23449;SDS011;11897;45.438;12.128;2023-06-14T13:41:25;5.32;;;2.30;;
23449;SDS011;11897;45.438;12.128;2023-06-14T13:43:56;2.53;;;2.20;;
23449;SDS011;11897;45.438;12.128;2023-06-14T13:46:23;2.42;;;2.00;;
23449;SDS011;11897;45.438;12.128;2023-06-14T13:48:50;2.20;;;2.00;;
23449;SDS011;11897;45.438;12.128;2023-06-14T13:51:17;3.50;;;2.05;;
23449;SDS011;11897;45.438;12.128;2023-06-14T13:53:47;3.97;;;1.95;;
23449;SDS011;11897;45.438;12.128;2023-06-14T13:56:14;2.83;;;2.28;;
23449;SDS011;11897;45.438;12.128;2023-06-14T13:58:41;3.28;;;2.22;;
23449;SDS011;11897;45.438;12.128;2023-06-14T14:01:07;2.20;;;2.00;;
23449;SDS011;11897;45.438;12.128;2023-06-14T14:03:35;2.55;;;2.22;;
23449;SDS011;11897;45.438;12.128;2023-06-14T14:06:03;3.65;;;2.28;;
23449;SDS011;11897;45.438;12.128;2023-06-14T14:08:30;3.35;;;2.40;;
23449;SDS011;11897;45.438;12.128;2023-06-14T14:10:58;2.88;;;2.33;;
23449;SDS011;11897;45.438;12.128;2023-06-14T14:13:24;3.00;;;2.08;;
23449;SDS011;11897;45.438;12.128;2023-06-14T14:15:51;2.65;;;2.40;;
23449;SDS011;11897;45.438;12.128;2023-06-14T14:18:18;2.80;;;2.20;;
23449;SDS011;11897;45.438;12.128;2023-06-14T14:20:46;3.55;;;2.10;;
23449;SDS011;11897;45.438;12.128;2023-06-14T14:23:12;4.40;;;2.08;;
23449;SDS011;11897;45.438;12.128;2023-06-14T14:25:39;3.00;;;2.47;;
23449;SDS011;11897;45.438;12.128;2023-06-14T14:28:07;2.75;;;2.05;;
23449;SDS011;11897;45.438;12.128;2023-06-14T14:30:34;2.40;;;2.20;;
23449;SDS011;11897;45.438;12.128;2023-06-14T14:33:04;4.30;;;2.28;;
23449;SDS011;11897;45.438;12.128;2023-06-14T14:35:31;3.42;;;2.55;;
23449;SDS011;11897;45.438;12.128;2023-06-14T14:37:58;2.53;;;1.80;;
23449;SDS011;11897;45.438;12.128;2023-06-14T14:40:25;3.40;;;2.33;;
23449;SDS011;11897;45.438;12.128;2023-06-14T14:42:51;4.25;;;2.15;;
23449;SDS011;11897;45.438;12.128;2023-06-14T14:45:19;3.15;;;2.10;;